createdAt,value
2018-08-13T00:01:52.076Z,16.20
2018-08-13T00:04:21.344Z,15.30
2018-08-13T00:06:51.131Z,15.60
2018-08-13T00:09:51.053Z,14.83
2018-08-13T00:12:20.299Z,15.17
2018-08-13T00:14:49.520Z,14.90
2018-08-13T00:17:18.843Z,16.07
2018-08-13T00:19:48.342Z,17.77
2018-08-13T00:22:17.641Z,18.20
2018-08-13T00:24:47.034Z,19.57
2018-08-13T00:27:16.351Z,17.87
2018-08-13T00:29:45.680Z,17.80
2018-08-13T00:32:15.037Z,19.20
2018-08-13T00:34:44.427Z,19.63
2018-08-13T00:37:14.158Z,18.30
2018-08-13T00:39:43.536Z,18.20
2018-08-13T00:42:12.888Z,19.60
2018-08-13T00:44:42.248Z,20.70
2018-08-13T00:47:11.577Z,19.43
2018-08-13T00:49:40.943Z,21.03
2018-08-13T00:52:10.211Z,19.63
2018-08-13T00:54:39.500Z,19.07
2018-08-13T00:57:08.771Z,18.37
2018-08-13T00:59:38.056Z,20.30
2018-08-13T01:02:07.589Z,19.97
2018-08-13T01:04:37.342Z,17.83
2018-08-13T01:07:06.698Z,21.37
2018-08-13T01:09:35.986Z,18.70
2018-08-13T01:12:05.405Z,18.97
2018-08-13T01:14:34.750Z,21.13
2018-08-13T01:17:04.121Z,20.33
2018-08-13T01:19:33.493Z,18.47
2018-08-13T01:22:02.963Z,19.47
2018-08-13T01:24:32.316Z,19.30
2018-08-13T01:27:01.579Z,18.90
2018-08-13T01:29:30.982Z,18.20
2018-08-13T01:32:00.398Z,18.80
2018-08-13T01:34:29.735Z,19.80
2018-08-13T01:36:58.976Z,19.17
2018-08-13T01:39:28.560Z,18.20
2018-08-13T01:41:57.953Z,16.03
2018-08-13T01:44:27.267Z,17.60
2018-08-13T01:46:56.533Z,15.90
2018-08-13T01:49:25.916Z,19.03
2018-08-13T01:51:55.210Z,18.53
2018-08-13T01:54:24.461Z,17.80
2018-08-13T01:56:53.872Z,18.17
2018-08-13T01:59:23.126Z,18.90
2018-08-13T02:01:52.460Z,19.20
2018-08-13T02:04:21.775Z,18.77
2018-08-13T02:06:51.091Z,18.17
2018-08-13T02:09:20.444Z,18.33
2018-08-13T02:11:49.853Z,18.53
2018-08-13T02:14:19.167Z,19.50
2018-08-13T02:16:48.547Z,19.47
2018-08-13T02:19:17.939Z,19.00
2018-08-13T02:21:47.499Z,21.87
2018-08-13T02:24:16.830Z,19.40
2018-08-13T02:26:46.306Z,21.70
2018-08-13T02:29:15.670Z,20.33
2018-08-13T02:31:45.089Z,20.90
2018-08-13T02:34:14.407Z,22.10
2018-08-13T02:36:43.752Z,21.80
2018-08-13T02:39:13.529Z,22.27
2018-08-13T02:41:43.007Z,22.50
2018-08-13T02:44:12.561Z,22.13
2018-08-13T02:46:41.912Z,21.57
2018-08-13T02:49:11.335Z,24.20
2018-08-13T02:51:40.751Z,22.40
2018-08-13T02:54:10.082Z,23.97
2018-08-13T02:56:39.387Z,24.07
2018-08-13T02:59:08.696Z,23.97
2018-08-13T03:01:38.004Z,22.73
2018-08-13T03:04:07.432Z,25.70
2018-08-13T03:06:36.678Z,23.67
2018-08-13T03:09:09.608Z,25.77
2018-08-13T03:11:39.205Z,24.50
2018-08-13T03:14:08.604Z,27.23
2018-08-13T03:16:37.936Z,24.63
2018-08-13T03:19:07.426Z,26.07
2018-08-13T03:21:36.766Z,26.17
2018-08-13T03:24:06.227Z,24.33
2018-08-13T03:26:35.656Z,25.60
2018-08-13T03:29:05.017Z,26.00
2018-08-13T03:31:34.429Z,25.80
2018-08-13T03:34:03.780Z,25.27
2018-08-13T03:36:33.052Z,24.40
2018-08-13T03:39:02.425Z,24.27
2018-08-13T03:41:31.724Z,24.07
2018-08-13T03:44:01.077Z,25.00
2018-08-13T03:46:30.348Z,25.87
2018-08-13T03:48:59.717Z,27.90
2018-08-13T03:51:29.134Z,26.17
2018-08-13T03:53:58.443Z,24.37
2018-08-13T03:56:27.849Z,25.37
2018-08-13T03:58:57.127Z,25.20
2018-08-13T04:01:26.404Z,26.37
2018-08-13T04:03:55.899Z,27.27
2018-08-13T04:06:25.221Z,26.10
2018-08-13T04:08:54.538Z,26.80
2018-08-13T04:11:23.854Z,25.67
2018-08-13T04:13:53.219Z,27.00
2018-08-13T04:16:22.596Z,25.87
2018-08-13T04:18:52.719Z,24.10
2018-08-13T04:21:22.027Z,28.27
2018-08-13T04:23:51.397Z,25.67
2018-08-13T04:26:20.822Z,25.33
2018-08-13T04:28:50.274Z,26.10
2018-08-13T04:31:19.598Z,26.27
2018-08-13T04:33:48.930Z,25.23
2018-08-13T04:36:18.254Z,25.50
2018-08-13T04:38:47.590Z,27.80
2018-08-13T04:41:16.827Z,26.03
2018-08-13T04:43:46.167Z,26.57
2018-08-13T04:46:15.479Z,24.23
2018-08-13T04:48:44.742Z,26.30
2018-08-13T04:51:14.127Z,27.53
2018-08-13T04:53:43.418Z,25.70
2018-08-13T04:56:12.688Z,26.13
2018-08-13T04:58:42.066Z,25.83
2018-08-13T05:01:11.371Z,25.00
2018-08-13T05:03:40.656Z,23.70
2018-08-13T05:06:09.986Z,26.10
2018-08-13T05:08:39.303Z,24.60
2018-08-13T05:11:08.574Z,25.80
2018-08-13T05:13:37.888Z,23.77
2018-08-13T05:16:07.183Z,27.40
2018-08-13T05:18:36.479Z,25.97
2018-08-13T05:21:05.843Z,25.73
2018-08-13T05:23:35.186Z,25.43
2018-08-13T05:26:04.530Z,25.17
2018-08-13T05:28:33.811Z,26.03
2018-08-13T05:31:03.212Z,25.80
2018-08-13T05:33:32.759Z,24.43
2018-08-13T05:36:02.147Z,24.37
2018-08-13T05:38:31.491Z,24.93
2018-08-13T05:41:00.844Z,24.90
2018-08-13T05:43:30.181Z,23.37
2018-08-13T05:45:59.457Z,23.97
2018-08-13T05:48:28.799Z,25.50
2018-08-13T05:50:58.086Z,25.47
2018-08-13T05:53:27.398Z,24.27
2018-08-13T05:55:56.871Z,24.87
2018-08-13T05:58:26.135Z,24.30
2018-08-13T06:00:55.447Z,25.10
2018-08-13T06:03:24.752Z,23.83
2018-08-13T06:05:54.125Z,26.83
2018-08-13T06:08:23.424Z,23.50
2018-08-13T06:10:52.893Z,25.87
2018-08-13T06:13:22.203Z,26.17
2018-08-13T06:15:51.661Z,25.60
2018-08-13T06:18:21.087Z,25.47
2018-08-13T06:20:50.420Z,27.10
2018-08-13T06:23:19.789Z,25.85
2018-08-13T06:25:49.115Z,25.07
2018-08-13T06:28:19.944Z,25.70
2018-08-13T06:30:49.243Z,26.20
2018-08-13T06:33:18.539Z,25.00
2018-08-13T06:35:47.952Z,26.93
2018-08-13T06:38:17.259Z,24.50
2018-08-13T06:40:46.534Z,26.50
2018-08-13T06:43:16.029Z,25.70
2018-08-13T06:45:45.480Z,27.43
2018-08-13T06:48:14.832Z,27.23
2018-08-13T06:50:44.255Z,27.50
2018-08-13T06:53:13.585Z,26.30
2018-08-13T06:55:43.022Z,27.70
2018-08-13T06:58:12.665Z,27.23
2018-08-13T07:00:42.175Z,26.23
2018-08-13T07:03:11.532Z,27.87
2018-08-13T07:05:40.845Z,27.00
2018-08-13T07:08:10.364Z,27.20
2018-08-13T07:10:39.734Z,28.60
2018-08-13T07:13:09.182Z,28.03
2018-08-13T07:15:38.662Z,27.20
2018-08-13T07:18:08.008Z,27.97
2018-08-13T07:20:37.528Z,27.87
2018-08-13T07:23:06.931Z,28.57
2018-08-13T07:25:36.314Z,26.57
2018-08-13T07:28:05.797Z,28.60
2018-08-13T07:30:35.152Z,29.70
2018-08-13T07:33:04.861Z,27.33
2018-08-13T07:35:34.214Z,27.43
2018-08-13T07:38:03.699Z,24.87
2018-08-13T07:40:33.041Z,27.00
2018-08-13T07:43:02.503Z,26.27
2018-08-13T07:45:31.823Z,27.13
2018-08-13T07:48:01.216Z,27.33
2018-08-13T07:50:30.671Z,27.50
2018-08-13T07:53:00.048Z,27.10
2018-08-13T07:57:54.089Z,26.33
2018-08-13T08:00:23.575Z,25.17
2018-08-13T08:02:52.897Z,25.23
2018-08-13T08:05:22.237Z,25.20
2018-08-13T08:07:51.667Z,26.53
2018-08-13T08:10:21.005Z,26.87
2018-08-13T08:12:50.450Z,26.23
2018-08-13T08:15:20.626Z,27.20
2018-08-13T08:17:50.091Z,26.80
2018-08-13T08:20:19.394Z,28.07
2018-08-13T08:22:48.874Z,26.80
2018-08-13T08:25:20.287Z,27.00
2018-08-13T08:27:49.810Z,25.73
2018-08-13T08:30:19.421Z,25.50
2018-08-13T08:32:48.812Z,26.30
2018-08-13T08:35:18.681Z,25.20
2018-08-13T08:37:48.147Z,26.13
2018-08-13T08:40:19.622Z,24.80
2018-08-13T08:42:49.740Z,24.57
2018-08-13T08:45:21.724Z,24.87
2018-08-13T08:47:51.873Z,25.70
2018-08-13T08:50:21.223Z,26.60
2018-08-13T08:52:50.713Z,24.60
2018-08-13T08:55:20.244Z,26.60
2018-08-13T08:57:50.798Z,26.30
2018-08-13T09:00:22.579Z,25.67
2018-08-13T09:02:52.054Z,27.57
2018-08-13T09:05:21.570Z,27.10
2018-08-13T09:07:50.921Z,28.70
2018-08-13T09:10:20.779Z,28.60
2018-08-13T09:12:50.188Z,28.37
2018-08-13T09:15:19.573Z,26.50
2018-08-13T09:18:00.275Z,29.63
2018-08-13T09:20:40.463Z,28.67
2018-08-13T09:23:20.653Z,29.23
2018-08-13T09:26:00.885Z,30.47
2018-08-13T09:28:41.270Z,30.60
2018-08-13T09:31:19.848Z,30.47
2018-08-13T09:34:00.019Z,29.23
2018-08-13T09:36:29.534Z,29.33
2018-08-13T09:38:58.809Z,31.03
2018-08-13T09:41:28.164Z,30.90
2018-08-13T09:43:57.501Z,30.73
2018-08-13T09:46:26.837Z,30.43
2018-08-13T09:48:56.143Z,28.33
2018-08-13T09:51:25.538Z,30.27
2018-08-13T09:53:55.039Z,30.73
2018-08-13T09:56:24.354Z,27.93
2018-08-13T09:58:53.700Z,29.67
2018-08-13T10:01:23.086Z,27.33
2018-08-13T10:03:52.440Z,27.70
2018-08-13T10:06:21.802Z,28.00
2018-08-13T10:08:51.221Z,28.70
2018-08-13T10:11:20.514Z,30.40
2018-08-13T10:13:49.886Z,27.20
2018-08-13T10:16:19.334Z,26.87
2018-08-13T10:18:48.654Z,27.13
2018-08-13T10:21:17.991Z,27.87
2018-08-13T10:23:47.335Z,27.23
2018-08-13T10:26:16.696Z,25.07
2018-08-13T10:28:45.974Z,25.13
2018-08-13T10:31:15.268Z,25.10
2018-08-13T10:33:44.550Z,25.37
2018-08-13T10:36:14.041Z,25.30
2018-08-13T10:38:43.385Z,23.97
2018-08-13T10:41:12.647Z,24.70
2018-08-13T10:43:41.928Z,24.10
2018-08-13T10:46:11.338Z,23.73
2018-08-13T10:48:40.707Z,25.00
2018-08-13T10:51:10.123Z,22.70
2018-08-13T10:53:39.448Z,24.80
2018-08-13T10:56:08.878Z,27.03
2018-08-13T10:58:38.383Z,26.83
2018-08-13T11:01:08.116Z,27.17
2018-08-13T11:03:37.395Z,28.70
2018-08-13T11:06:07.950Z,28.20
2018-08-13T11:08:46.852Z,28.23
2018-08-13T11:11:16.377Z,26.62
2018-08-13T11:13:45.658Z,27.13
2018-08-13T11:16:15.072Z,27.40
2018-08-13T11:18:45.601Z,24.67
2018-08-13T11:21:14.982Z,26.33
2018-08-13T11:23:44.343Z,24.70
2018-08-13T11:26:13.887Z,24.30
2018-08-13T11:28:43.186Z,25.00
2018-08-13T11:31:12.563Z,24.33
2018-08-13T11:33:41.932Z,25.60
2018-08-13T11:36:11.163Z,26.03
2018-08-13T11:38:41.486Z,24.47
2018-08-13T11:41:10.871Z,29.43
2018-08-13T11:43:41.174Z,25.50
2018-08-13T11:46:10.675Z,27.17
2018-08-13T11:48:40.092Z,26.00
2018-08-13T11:51:09.388Z,25.50
2018-08-13T11:53:38.734Z,25.83
2018-08-13T11:56:08.346Z,27.47
2018-08-13T11:58:37.802Z,24.50
2018-08-13T12:01:07.406Z,25.17
2018-08-13T12:03:36.771Z,24.80
2018-08-13T12:06:06.083Z,24.60
2018-08-13T12:08:35.629Z,26.37
2018-08-13T12:11:05.095Z,23.27
2018-08-13T12:13:34.364Z,25.27
2018-08-13T12:16:03.762Z,27.83
2018-08-13T12:18:33.146Z,27.10
2018-08-13T12:21:03.021Z,26.90
2018-08-13T12:23:32.484Z,26.87
2018-08-13T12:26:01.922Z,27.87
2018-08-13T12:28:31.176Z,28.07
2018-08-13T12:31:00.919Z,27.23
2018-08-13T12:33:30.499Z,29.30
2018-08-13T12:36:00.191Z,31.80
2018-08-13T12:38:29.562Z,29.73
2018-08-13T12:40:59.079Z,30.13
2018-08-13T12:43:28.580Z,31.53
2018-08-13T12:45:57.879Z,29.60
2018-08-13T12:48:27.246Z,28.83
2018-08-13T12:50:56.623Z,31.07
2018-08-13T12:53:25.915Z,28.93
2018-08-13T12:55:55.255Z,28.90
2018-08-13T12:58:24.634Z,30.27
2018-08-13T13:01:00.183Z,31.50
2018-08-13T13:03:29.940Z,29.67
2018-08-13T13:05:59.270Z,29.43
2018-08-13T13:08:28.581Z,29.50
2018-08-13T13:10:57.896Z,28.40
2018-08-13T13:13:27.314Z,29.60
2018-08-13T13:15:56.654Z,28.70
2018-08-13T13:18:26.168Z,31.53
2018-08-13T13:20:55.547Z,29.87
2018-08-13T13:23:24.850Z,28.63
2018-08-13T13:25:54.548Z,30.60
2018-08-13T13:28:23.983Z,31.33
2018-08-13T13:30:53.355Z,29.10
2018-08-13T13:33:22.666Z,28.50
2018-08-13T13:35:52.034Z,30.27
2018-08-13T13:38:21.413Z,27.93
2018-08-13T13:40:50.854Z,27.93
2018-08-13T13:43:20.216Z,28.60
2018-08-13T13:45:49.701Z,27.40
2018-08-13T13:48:19.083Z,28.77
2018-08-13T13:50:48.445Z,26.30
2018-08-13T13:53:17.828Z,27.83
2018-08-13T13:55:47.137Z,27.77
2018-08-13T13:58:16.481Z,27.77
2018-08-13T14:00:45.898Z,26.20
2018-08-13T14:03:15.164Z,27.83
2018-08-13T14:05:44.542Z,28.90
2018-08-13T14:08:13.914Z,29.40
2018-08-13T14:10:43.231Z,27.13
2018-08-13T14:13:12.533Z,28.03
2018-08-13T14:15:41.984Z,27.23
2018-08-13T14:18:11.423Z,29.83
2018-08-13T14:20:40.845Z,29.77
2018-08-13T14:23:10.392Z,30.60
2018-08-13T14:25:39.878Z,28.93
2018-08-13T14:28:09.233Z,29.30
2018-08-13T14:30:38.518Z,30.40
2018-08-13T14:33:08.178Z,27.47
2018-08-13T14:35:37.489Z,30.50
2018-08-13T14:38:06.963Z,31.23
2018-08-13T14:40:36.354Z,29.50
2018-08-13T14:43:05.881Z,31.50
2018-08-13T14:45:35.260Z,32.00
2018-08-13T14:48:04.895Z,34.45
2018-08-13T14:50:34.326Z,34.97
2018-08-13T14:53:03.631Z,34.60
2018-08-13T14:55:33.149Z,36.10
2018-08-13T14:58:02.945Z,35.57
2018-08-13T15:00:32.507Z,36.13
2018-08-13T15:03:02.025Z,35.07
2018-08-13T15:05:31.390Z,36.43
2018-08-13T15:08:00.731Z,35.70
2018-08-13T15:10:30.093Z,35.27
2018-08-13T15:12:59.517Z,36.00
2018-08-13T15:15:28.905Z,35.90
2018-08-13T15:17:58.342Z,35.20
2018-08-13T15:20:29.996Z,35.80
2018-08-13T15:22:59.379Z,35.60
2018-08-13T15:25:29.346Z,35.60
2018-08-13T15:27:58.668Z,36.93
2018-08-13T15:30:28.240Z,35.77
2018-08-13T15:32:57.726Z,37.00
2018-08-13T15:35:27.154Z,36.37
2018-08-13T15:37:56.478Z,33.27
2018-08-13T15:40:25.818Z,37.60
2018-08-13T15:42:55.258Z,40.00
2018-08-13T15:45:25.077Z,39.63
2018-08-13T15:47:54.501Z,39.40
2018-08-13T15:50:24.434Z,41.63
2018-08-13T15:52:53.990Z,39.83
2018-08-13T15:55:23.327Z,40.77
2018-08-13T15:57:52.587Z,43.43
2018-08-13T16:00:24.461Z,39.67
2018-08-13T16:02:53.933Z,40.13
2018-08-13T16:05:23.344Z,38.93
2018-08-13T16:07:53.171Z,38.73
2018-08-13T16:10:22.670Z,37.30
2018-08-13T16:12:52.279Z,39.17
2018-08-13T16:15:21.546Z,36.40
2018-08-13T16:17:50.821Z,39.80
2018-08-13T16:20:20.601Z,37.97
2018-08-13T16:22:50.321Z,39.60
2018-08-13T16:25:19.755Z,40.20
2018-08-13T16:27:49.164Z,38.33
2018-08-13T16:30:20.400Z,38.80
2018-08-13T16:32:50.054Z,37.73
2018-08-13T16:35:19.885Z,38.20
2018-08-13T16:37:49.512Z,39.30
2018-08-13T16:40:19.512Z,38.20
2018-08-13T16:42:49.582Z,39.78
2018-08-13T16:45:19.971Z,39.03
2018-08-13T16:47:49.343Z,37.30
2018-08-13T16:50:23.723Z,36.47
2018-08-13T16:52:53.300Z,38.73
2018-08-13T16:55:22.820Z,34.80
2018-08-13T16:57:52.218Z,36.13
2018-08-13T17:00:25.612Z,38.40
2018-08-13T17:02:55.252Z,36.63
2018-08-13T17:05:24.804Z,35.63
2018-08-13T17:07:54.231Z,34.47
2018-08-13T17:10:25.469Z,36.10
2018-08-13T17:12:55.447Z,36.30
2018-08-13T17:15:25.650Z,34.23
2018-08-13T17:17:56.426Z,32.60
2018-08-13T17:20:28.757Z,35.30
2018-08-13T17:22:58.646Z,35.10
2018-08-13T17:25:28.291Z,32.03
2018-08-13T17:27:57.841Z,35.30
2018-08-13T17:30:27.918Z,33.03
2018-08-13T17:32:59.011Z,31.13
2018-08-13T17:35:30.111Z,32.27
2018-08-13T17:38:00.655Z,30.57
2018-08-13T17:40:30.412Z,33.97
2018-08-13T17:43:01.002Z,30.73
2018-08-13T17:45:30.497Z,32.30
2018-08-13T17:47:59.828Z,30.70
2018-08-13T17:50:29.350Z,32.13
2018-08-13T17:52:58.650Z,32.77
2018-08-13T17:55:28.069Z,30.73
2018-08-13T17:57:57.393Z,30.40
2018-08-13T18:00:27.734Z,29.93
2018-08-13T18:02:57.149Z,31.00
2018-08-13T18:05:27.743Z,30.00
2018-08-13T18:07:57.892Z,31.20
2018-08-13T18:10:30.297Z,32.40
2018-08-13T18:13:01.905Z,32.30
2018-08-13T18:15:31.783Z,33.10
2018-08-13T18:18:01.110Z,32.77
2018-08-13T18:20:30.440Z,34.10
2018-08-13T18:22:59.838Z,33.63
2018-08-13T18:25:29.140Z,31.07
2018-08-13T18:27:58.598Z,31.90
2018-08-13T18:30:29.114Z,33.40
2018-08-13T18:32:58.503Z,32.40
2018-08-13T18:35:27.942Z,32.33
2018-08-13T18:37:57.393Z,33.30
2018-08-13T18:40:31.750Z,31.70
2018-08-13T18:43:01.132Z,32.87
2018-08-13T18:45:30.560Z,34.00
2018-08-13T18:48:00.376Z,33.38
2018-08-13T18:50:29.763Z,31.67
2018-08-13T18:52:59.068Z,33.00
2018-08-13T18:55:28.525Z,33.77
2018-08-13T18:57:57.952Z,34.00
2018-08-13T19:00:29.167Z,33.98
2018-08-13T19:03:00.611Z,35.20
2018-08-13T19:05:30.501Z,36.40
2018-08-13T19:07:59.719Z,34.30
2018-08-13T19:10:29.067Z,32.20
2018-08-13T19:12:58.517Z,33.07
2018-08-13T19:15:28.584Z,32.97
2018-08-13T19:17:57.968Z,32.83
2018-08-13T19:20:27.213Z,36.23
2018-08-13T19:22:56.530Z,33.80
2018-08-13T19:25:27.852Z,34.27
2018-08-13T19:27:57.243Z,36.27
2018-08-13T19:30:26.954Z,33.53
2018-08-13T19:32:56.376Z,32.80
2018-08-13T19:35:25.702Z,34.00
2018-08-13T19:37:54.991Z,33.20
2018-08-13T19:40:25.818Z,35.07
2018-08-13T19:42:55.324Z,32.37
2018-08-13T19:45:25.016Z,35.77
2018-08-13T19:47:54.775Z,34.10
2018-08-13T19:50:24.248Z,35.90
2018-08-13T19:52:53.663Z,36.63
2018-08-13T19:55:23.515Z,35.27
2018-08-13T19:57:52.905Z,36.53
2018-08-13T20:00:26.158Z,34.57
2018-08-13T20:02:55.873Z,34.70
2018-08-13T20:05:26.583Z,36.67
2018-08-13T20:07:56.200Z,33.60
2018-08-13T20:10:25.657Z,35.17
2018-08-13T20:12:55.222Z,34.10
2018-08-13T20:15:24.590Z,35.57
2018-08-13T20:17:53.987Z,36.07
2018-08-13T20:20:23.527Z,34.27
2018-08-13T20:22:52.852Z,33.17
2018-08-13T20:25:22.401Z,34.60
2018-08-13T20:27:52.118Z,35.03
2018-08-13T20:30:22.741Z,34.47
2018-08-13T20:32:53.172Z,33.83
2018-08-13T20:35:22.570Z,36.50
2018-08-13T20:37:51.893Z,35.10
2018-08-13T20:40:22.179Z,33.20
2018-08-13T20:42:51.771Z,36.13
2018-08-13T20:45:22.176Z,37.27
2018-08-13T20:47:51.602Z,36.70
2018-08-13T20:50:22.338Z,35.00
2018-08-13T20:52:52.710Z,36.33
2018-08-13T20:55:26.554Z,36.20
2018-08-13T20:57:55.995Z,38.80
2018-08-13T21:00:27.118Z,37.07
2018-08-13T21:02:56.654Z,35.10
2018-08-13T21:05:25.926Z,35.17
2018-08-13T21:07:55.439Z,35.00
2018-08-13T21:10:25.815Z,34.30
2018-08-13T21:12:55.356Z,35.27
2018-08-13T21:15:24.807Z,36.80
2018-08-13T21:17:54.343Z,36.13
2018-08-13T21:20:28.041Z,38.03
2018-08-13T21:22:57.775Z,38.90
2018-08-13T21:25:27.258Z,38.73
2018-08-13T21:27:56.686Z,41.37
2018-08-13T21:30:26.929Z,42.43
2018-08-13T21:32:56.306Z,42.08
2018-08-13T21:35:26.376Z,42.03
2018-08-13T21:37:56.178Z,39.83
2018-08-13T21:40:25.557Z,42.40
2018-08-13T21:42:55.071Z,44.47
2018-08-13T21:45:24.473Z,45.07
2018-08-13T21:47:53.882Z,43.03
2018-08-13T21:50:23.760Z,41.30
2018-08-13T21:52:53.097Z,43.77
2018-08-13T21:55:22.491Z,43.50
2018-08-13T21:57:51.844Z,43.50
2018-08-13T22:00:28.366Z,43.00
2018-08-13T22:02:59.311Z,41.93
2018-08-13T22:05:28.944Z,41.17
2018-08-13T22:07:58.688Z,43.60
2018-08-13T22:10:28.247Z,43.00
2018-08-13T22:12:57.707Z,47.30
2018-08-13T22:15:30.948Z,47.13
2018-08-13T22:18:03.795Z,45.43
2018-08-13T22:20:34.512Z,44.60
2018-08-13T22:23:06.217Z,43.57
2018-08-13T22:25:40.003Z,45.10
2018-08-13T22:28:10.677Z,45.10
2018-08-13T22:30:40.357Z,43.70
2018-08-13T22:33:11.191Z,44.43
2018-08-13T22:35:41.088Z,44.40
2018-08-13T22:38:10.687Z,44.07
2018-08-13T22:40:40.849Z,44.50
2018-08-13T22:43:10.415Z,44.23
2018-08-13T22:45:40.430Z,44.30
2018-08-13T22:48:09.952Z,45.87
2018-08-13T22:50:39.928Z,45.83
2018-08-13T22:53:09.438Z,46.97
2018-08-13T22:55:38.887Z,47.43
2018-08-13T22:58:08.372Z,45.73
2018-08-13T23:00:37.731Z,44.07
2018-08-13T23:03:07.667Z,46.90
2018-08-13T23:05:37.013Z,48.93
2018-08-13T23:08:06.841Z,44.83
2018-08-13T23:10:39.507Z,47.43
2018-08-13T23:13:16.744Z,48.00
2018-08-13T23:15:52.126Z,49.93
2018-08-13T23:18:28.832Z,48.77
2018-08-13T23:21:01.726Z,50.20
2018-08-13T23:23:32.967Z,44.90
2018-08-13T23:26:04.199Z,46.90
2018-08-13T23:28:37.493Z,45.67
2018-08-13T23:31:10.366Z,43.53
2018-08-13T23:33:39.903Z,48.77
2018-08-13T23:36:09.207Z,44.67
2018-08-13T23:38:38.520Z,44.43
2018-08-13T23:41:08.368Z,43.10
2018-08-13T23:43:37.721Z,44.77
2018-08-13T23:46:07.031Z,42.93
2018-08-13T23:48:36.546Z,42.60
2018-08-13T23:51:05.987Z,45.63
2018-08-13T23:53:35.519Z,44.43
2018-08-13T23:56:05.006Z,46.00
2018-08-13T23:58:34.287Z,43.23
